Time;durP1;ratioP1;P1;durP2;ratioP2;P2;SDS_P1;SDS_P2;PMS_P1;PMS_P2;Temp;Humidity;BMP_temperature;BMP_pressure;BME280_temperature;BME280_humidity;BME280_pressure;Samples;Min_cycle;Max_cycle;Signal;HPM_P1;HPM_P2
2023/11/28 00:00:36;;;;;;;;;;;-2.50;99.90;;;;;;5034876;28;20505;-66
2023/11/28 00:03:03;;;;;;;;;;;-2.50;99.90;;;;;;5036581;28;20026;-66
2023/11/28 00:05:30;;;;;;;;;;;-2.50;99.90;;;;;;5027815;28;20454;-62
2023/11/28 00:08:00;;;;;;;;;;;-2.40;99.90;;;;;;5037666;28;19931;-65
2023/11/28 00:10:27;;;;;;;;;;;-2.40;99.90;;;;;;5030872;28;19925;-64
2023/11/28 00:12:54;;;;;;;;;;;-2.30;99.90;;;;;;5033320;28;19925;-65
2023/11/28 00:15:20;;;;;;;;;;;-2.30;99.90;;;;;;5034218;28;19925;-68
2023/11/28 00:17:47;;;;;;;;;;;-2.40;99.90;;;;;;5035101;28;19968;-65
2023/11/28 00:20:14;;;;;;;;;;;-2.50;99.90;;;;;;5034462;28;20011;-64
2023/11/28 00:22:41;;;;;;;;;;;-2.60;99.90;;;;;;5032346;28;19925;-65
2023/11/28 00:25:08;;;;;;;;;;;-2.60;99.90;;;;;;5034564;28;19925;-64
2023/11/28 00:27:35;;;;;;;;;;;-2.70;99.90;;;;;;5035361;28;19926;-62
2023/11/28 00:30:02;;;;;;;;;;;-2.60;99.90;;;;;;5037788;28;19932;-64
2023/11/28 00:32:30;;;;;;;;;;;-2.60;99.90;;;;;;5034095;28;19936;-64
2023/11/28 00:34:56;;;;;;;;;;;-2.40;99.90;;;;;;5035612;28;20027;-65
2023/11/28 00:37:23;;;;;;;;;;;-2.40;99.90;;;;;;5037240;28;20044;-63
2023/11/28 00:39:50;;;;;;;;;;;-2.30;99.90;;;;;;5038557;28;19924;-64
2023/11/28 00:42:18;;;;;;;;;;;-2.40;99.90;;;;;;5035565;28;19935;-61
2023/11/28 00:44:44;;;;;;;;;;;-2.40;99.90;;;;;;5036599;28;19956;-68
2023/11/28 00:47:12;;;;;;;;;;;-2.40;99.90;;;;;;5034839;28;19929;-62
2023/11/28 00:49:42;;;;;;;;;;;-2.40;99.90;;;;;;5032809;28;19925;-64
2023/11/28 00:52:10;;;;;;;;;;;-2.40;99.90;;;;;;5040376;28;20417;-65
2023/11/28 00:54:38;;;;;;;;;;;-2.40;99.90;;;;;;5054061;28;19972;-64
2023/11/28 00:57:05;;;;;;;;;;;-2.40;99.90;;;;;;5036572;28;20567;-62
2023/11/28 00:59:32;;;;;;;;;;;-2.40;99.90;;;;;;5033604;28;20288;-67
2023/11/28 01:02:00;;;;;;;;;;;-2.30;99.90;;;;;;5030739;28;19968;-66
2023/11/28 01:04:27;;;;;;;;;;;-2.20;99.90;;;;;;5043243;28;20401;-63
2023/11/28 01:06:54;;;;;;;;;;;-2.30;99.90;;;;;;5029952;28;19925;-62
2023/11/28 01:09:21;;;;;;;;;;;-2.20;99.90;;;;;;5028502;28;20496;-72
2023/11/28 01:11:48;;;;;;;;;;;-2.20;99.90;;;;;;5028956;28;19979;-62
2023/11/28 01:14:14;;;;;;;;;;;-2.20;99.90;;;;;;5034104;28;19995;-62
2023/11/28 01:16:44;;;;;;;;;;;-2.30;99.90;;;;;;5032896;28;19940;-68
2023/11/28 01:19:11;;;;;;;;;;;-2.30;99.90;;;;;;5036035;28;20523;-65
2023/11/28 01:21:38;;;;;;;;;;;-2.30;99.90;;;;;;5029981;28;19929;-61
2023/11/28 01:24:04;;;;;;;;;;;-2.20;99.90;;;;;;5026599;28;20399;-61
2023/11/28 01:26:32;;;;;;;;;;;-2.20;99.90;;;;;;5032661;28;19996;-66
2023/11/28 01:28:59;;;;;;;;;;;-2.30;99.90;;;;;;5035404;28;19956;-62
2023/11/28 01:31:28;;;;;;;;;;;-2.20;99.90;;;;;;5033157;28;19940;-62
2023/11/28 01:33:54;;;;;;;;;;;-2.20;99.90;;;;;;5032012;28;19926;-63
2023/11/28 01:36:21;;;;;;;;;;;-2.20;99.90;;;;;;5035605;28;19932;-61
2023/11/28 01:38:48;;;;;;;;;;;-2.20;99.90;;;;;;5048521;28;20299;-64
2023/11/28 01:41:15;;;;;;;;;;;-2.30;99.90;;;;;;5034283;28;19952;-62
2023/11/28 01:43:42;;;;;;;;;;;-2.20;99.90;;;;;;5034802;28;19929;-65
2023/11/28 01:46:09;;;;;;;;;;;-2.20;99.90;;;;;;5045127;28;19925;-70
2023/11/28 01:48:37;;;;;;;;;;;-2.10;99.90;;;;;;5033220;28;19932;-68
2023/11/28 01:51:05;;;;;;;;;;;-2.10;99.90;;;;;;5035106;28;20381;-62
2023/11/28 01:53:32;;;;;;;;;;;-2.10;99.90;;;;;;5028991;28;19925;-62
2023/11/28 01:56:00;;;;;;;;;;;-2.10;99.90;;;;;;5025350;28;20429;-62
2023/11/28 01:58:27;;;;;;;;;;;-2.10;99.90;;;;;;5030858;28;19932;-61
2023/11/28 02:00:54;;;;;;;;;;;-2.10;99.90;;;;;;5046997;28;19941;-66
2023/11/28 02:03:22;;;;;;;;;;;-2.10;99.90;;;;;;5028982;28;19925;-62
2023/11/28 02:05:49;;;;;;;;;;;-2.10;99.90;;;;;;5037859;28;20375;-64
2023/11/28 02:08:15;;;;;;;;;;;-2.20;99.90;;;;;;5023358;28;20296;-64
2023/11/28 02:10:42;;;;;;;;;;;-2.20;99.90;;;;;;5030140;28;19929;-62
2023/11/28 02:13:09;;;;;;;;;;;-2.20;99.90;;;;;;5034562;28;19933;-65
2023/11/28 02:15:41;;;;;;;;;;;-2.20;99.90;;;;;;5030843;28;19941;-65
2023/11/28 02:18:09;;;;;;;;;;;-2.20;99.90;;;;;;5020314;28;20037;-63
2023/11/28 02:20:37;;;;;;;;;;;-2.20;99.90;;;;;;5030643;28;19925;-65
2023/11/28 02:23:04;;;;;;;;;;;-2.10;99.90;;;;;;5036675;28;19964;-63
2023/11/28 02:25:45;;;;;;;;;;;-2.10;99.90;;;;;;5030965;28;20023;-63
2023/11/28 02:28:19;;;;;;;;;;;-2.20;99.90;;;;;;5032088;28;19925;-63
2023/11/28 02:30:47;;;;;;;;;;;-2.10;99.90;;;;;;5026278;28;19960;-62
2023/11/28 02:33:14;;;;;;;;;;;-2.10;99.90;;;;;;5030997;28;20306;-63
2023/11/28 02:35:41;;;;;;;;;;;-2.10;99.90;;;;;;5032156;28;19925;-65
2023/11/28 02:38:08;;;;;;;;;;;-2.00;99.90;;;;;;5035332;28;19925;-69
2023/11/28 02:40:35;;;;;;;;;;;-2.00;99.90;;;;;;5029470;28;19936;-68
2023/11/28 02:43:02;;;;;;;;;;;-2.00;99.90;;;;;;5053724;28;19936;-65
2023/11/28 02:45:29;;;;;;;;;;;-2.00;99.90;;;;;;5026490;28;19930;-63
2023/11/28 02:47:55;;;;;;;;;;;-2.10;99.90;;;;;;5033218;28;20418;-71
2023/11/28 02:50:22;;;;;;;;;;;-2.00;99.90;;;;;;5029837;28;19932;-63
2023/11/28 02:52:49;;;;;;;;;;;-2.00;99.90;;;;;;5034072;28;19925;-65
2023/11/28 02:55:16;;;;;;;;;;;-2.00;99.90;;;;;;5034614;28;20304;-64
2023/11/28 02:57:44;;;;;;;;;;;-2.00;99.90;;;;;;5019039;28;20338;-64
2023/11/28 03:00:11;;;;;;;;;;;-2.00;99.90;;;;;;5037065;28;19925;-69
2023/11/28 03:02:38;;;;;;;;;;;-1.90;99.90;;;;;;5031231;28;19948;-63
2023/11/28 03:05:05;;;;;;;;;;;-1.90;99.90;;;;;;5035370;28;19929;-61
2023/11/28 03:07:32;;;;;;;;;;;-1.90;99.90;;;;;;5028651;28;19932;-62
2023/11/28 03:09:59;;;;;;;;;;;-2.00;99.90;;;;;;5035830;28;19936;-63
2023/11/28 03:12:26;;;;;;;;;;;-2.00;99.90;;;;;;5024821;28;19926;-62
2023/11/28 03:14:54;;;;;;;;;;;-2.00;99.90;;;;;;5037414;28;19935;-62
2023/11/28 03:17:21;;;;;;;;;;;-2.00;99.90;;;;;;5034379;28;19929;-69
2023/11/28 03:19:47;;;;;;;;;;;-2.00;99.90;;;;;;5030009;28;19939;-63
2023/11/28 03:22:14;;;;;;;;;;;-1.90;99.90;;;;;;5034290;28;20448;-65
2023/11/28 03:24:42;;;;;;;;;;;-1.90;99.90;;;;;;5032907;28;19925;-66
2023/11/28 03:27:09;;;;;;;;;;;-1.90;99.90;;;;;;5032941;28;19987;-71
2023/11/28 03:29:36;;;;;;;;;;;-1.80;99.90;;;;;;5037663;28;19971;-64
2023/11/28 03:32:03;;;;;;;;;;;-1.80;99.90;;;;;;5035364;28;19964;-66
2023/11/28 03:34:30;;;;;;;;;;;-1.70;99.90;;;;;;5029331;28;19935;-64
2023/11/28 03:36:57;;;;;;;;;;;-1.80;99.90;;;;;;5037767;28;20274;-62
2023/11/28 03:39:24;;;;;;;;;;;-1.70;99.90;;;;;;5032265;28;19964;-63
2023/11/28 03:41:51;;;;;;;;;;;-1.70;99.90;;;;;;5038321;28;19932;-64
2023/11/28 03:44:18;;;;;;;;;;;-1.60;99.90;;;;;;5036962;28;19933;-62
2023/11/28 03:46:45;;;;;;;;;;;-1.60;99.90;;;;;;5038988;28;20018;-62
2023/11/28 03:49:12;;;;;;;;;;;-1.50;99.90;;;;;;5035312;28;19925;-70
2023/11/28 03:51:39;;;;;;;;;;;-1.50;99.90;;;;;;5031922;28;20346;-63
2023/11/28 03:54:05;;;;;;;;;;;-1.60;99.90;;;;;;5033955;28;19929;-63
2023/11/28 03:56:33;;;;;;;;;;;-1.60;99.90;;;;;;5036229;28;19937;-64
2023/11/28 03:59:00;;;;;;;;;;;-1.60;99.90;;;;;;5038789;28;19947;-64
2023/11/28 04:01:27;;;;;;;;;;;-1.50;99.90;;;;;;5037882;28;19970;-62
2023/11/28 04:03:54;;;;;;;;;;;-1.50;99.90;;;;;;5038913;28;19991;-62
2023/11/28 04:06:21;;;;;;;;;;;-1.50;99.90;;;;;;5054599;28;19924;-65
2023/11/28 04:08:51;;;;;;;;;;;-1.50;99.90;;;;;;5034130;28;19982;-61
2023/11/28 04:11:18;;;;;;;;;;;-1.40;99.90;;;;;;5033363;28;20010;-67
2023/11/28 04:13:46;;;;;;;;;;;-1.40;99.90;;;;;;5042738;28;20379;-63
2023/11/28 04:16:17;;;;;;;;;;;-1.40;99.90;;;;;;5031284;28;20044;-67
2023/11/28 04:18:45;;;;;;;;;;;-1.40;99.90;;;;;;5031721;28;19929;-62
2023/11/28 04:21:16;;;;;;;;;;;-1.50;99.90;;;;;;5033725;28;19928;-65
2023/11/28 04:23:43;;;;;;;;;;;-1.50;99.90;;;;;;5048411;28;20334;-62
2023/11/28 04:26:10;;;;;;;;;;;-1.60;99.90;;;;;;5029858;28;20029;-65
2023/11/28 04:28:38;;;;;;;;;;;-1.60;99.90;;;;;;5030138;28;19925;-68
2023/11/28 04:31:06;;;;;;;;;;;-1.50;99.90;;;;;;5033150;28;19929;-63
2023/11/28 04:33:35;;;;;;;;;;;-1.40;99.90;;;;;;5050429;28;19935;-62
2023/11/28 04:36:03;;;;;;;;;;;-1.30;99.90;;;;;;5047716;28;19940;-68
2023/11/28 04:38:30;;;;;;;;;;;-1.30;99.90;;;;;;5026539;28;19932;-65
2023/11/28 04:40:56;;;;;;;;;;;-1.30;99.90;;;;;;5035384;28;19971;-62
2023/11/28 04:43:23;;;;;;;;;;;-1.20;99.90;;;;;;5030885;28;19925;-66
2023/11/28 04:45:50;;;;;;;;;;;-1.20;99.90;;;;;;5033177;28;19964;-62
2023/11/28 04:48:17;;;;;;;;;;;-1.10;99.90;;;;;;5034458;28;19933;-62
2023/11/28 04:50:44;;;;;;;;;;;-1.10;99.90;;;;;;5030357;28;19933;-62
2023/11/28 04:53:10;;;;;;;;;;;-1.10;99.90;;;;;;5030921;28;19960;-66
2023/11/28 04:55:37;;;;;;;;;;;-1.00;99.90;;;;;;5035539;28;19971;-61
2023/11/28 04:58:04;;;;;;;;;;;-1.00;99.90;;;;;;5033874;28;20466;-64
2023/11/28 05:00:31;;;;;;;;;;;-1.00;99.90;;;;;;5027114;28;19925;-63
2023/11/28 05:02:58;;;;;;;;;;;-0.90;99.90;;;;;;5036558;28;19929;-64
2023/11/28 05:05:25;;;;;;;;;;;-0.90;99.90;;;;;;5046114;28;19924;-69
2023/11/28 05:07:52;;;;;;;;;;;-0.90;99.90;;;;;;5034661;28;20542;-65
2023/11/28 05:10:19;;;;;;;;;;;-0.90;99.90;;;;;;5048446;28;19997;-63
2023/11/28 05:12:46;;;;;;;;;;;-0.90;99.90;;;;;;5030169;28;20418;-63
2023/11/28 05:15:13;;;;;;;;;;;-1.00;99.90;;;;;;5031558;28;19968;-66
2023/11/28 05:17:40;;;;;;;;;;;-1.00;99.90;;;;;;5034865;28;19924;-65
2023/11/28 05:20:08;;;;;;;;;;;-1.00;99.90;;;;;;5035666;28;19935;-64
2023/11/28 05:22:37;;;;;;;;;;;-1.00;99.90;;;;;;5046509;28;19932;-65
2023/11/28 05:25:06;;;;;;;;;;;-1.00;99.90;;;;;;5038438;28;19933;-62
2023/11/28 05:27:33;;;;;;;;;;;-1.00;99.90;;;;;;5045664;28;19939;-65
2023/11/28 05:30:01;;;;;;;;;;;-1.00;99.90;;;;;;5035334;28;19932;-61
2023/11/28 05:32:29;;;;;;;;;;;-1.00;99.90;;;;;;5043988;28;19925;-62
2023/11/28 05:34:58;;;;;;;;;;;-1.00;99.90;;;;;;5037015;28;19925;-66
2023/11/28 05:37:24;;;;;;;;;;;-1.00;99.90;;;;;;5047416;28;19956;-62
2023/11/28 05:39:51;;;;;;;;;;;-1.00;99.90;;;;;;5030233;28;19925;-69
2023/11/28 05:42:18;;;;;;;;;;;-1.00;99.90;;;;;;5032342;28;19929;-66
2023/11/28 05:44:45;;;;;;;;;;;-1.00;99.90;;;;;;5031021;28;19925;-64
2023/11/28 05:47:12;;;;;;;;;;;-1.00;99.90;;;;;;5031935;28;19925;-64
2023/11/28 05:49:40;;;;;;;;;;;-1.00;99.90;;;;;;5052276;28;19925;-67
2023/11/28 05:52:07;;;;;;;;;;;-1.00;99.90;;;;;;5033300;28;20342;-64
2023/11/28 05:54:33;;;;;;;;;;;-1.10;99.90;;;;;;5031080;28;19925;-62
2023/11/28 05:57:02;;;;;;;;;;;-1.10;99.90;;;;;;5047294;28;19964;-62
2023/11/28 05:59:29;;;;;;;;;;;-1.00;99.90;;;;;;5029074;28;19986;-63
2023/11/28 06:02:00;;;;;;;;;;;-1.10;99.90;;;;;;5034769;28;19933;-61
2023/11/28 06:04:29;;;;;;;;;;;-1.00;99.90;;;;;;5030424;28;19968;-61
2023/11/28 06:06:58;;;;;;;;;;;-1.00;99.90;;;;;;5043816;28;19957;-64
2023/11/28 06:09:25;;;;;;;;;;;-1.00;99.90;;;;;;5027459;28;19976;-62
2023/11/28 06:11:52;;;;;;;;;;;-1.00;99.90;;;;;;5031600;28;19925;-67
2023/11/28 06:14:20;;;;;;;;;;;-1.00;99.90;;;;;;5026400;28;19956;-75
2023/11/28 06:16:47;;;;;;;;;;;-1.00;99.90;;;;;;5037981;28;19929;-63
2023/11/28 06:19:15;;;;;;;;;;;-1.00;99.90;;;;;;5025854;28;20406;-63
2023/11/28 06:21:42;;;;;;;;;;;-1.00;99.90;;;;;;5023599;28;19936;-63
2023/11/28 06:24:09;;;;;;;;;;;-1.00;99.90;;;;;;5025073;28;19936;-69
2023/11/28 06:26:35;;;;;;;;;;;-1.00;99.90;;;;;;5030598;28;20076;-67
2023/11/28 06:29:02;;;;;;;;;;;-1.00;99.90;;;;;;5032846;28;20379;-63
2023/11/28 06:31:29;;;;;;;;;;;-1.10;99.90;;;;;;5029820;28;19936;-61
2023/11/28 06:33:56;;;;;;;;;;;-1.00;99.90;;;;;;5024381;28;19932;-69
2023/11/28 06:36:23;;;;;;;;;;;-1.00;99.90;;;;;;5029274;28;19933;-62
2023/11/28 06:38:50;;;;;;;;;;;-1.00;99.90;;;;;;5032137;28;21157;-62
2023/11/28 06:41:16;;;;;;;;;;;-0.90;99.90;;;;;;5028925;28;19957;-66
2023/11/28 06:43:43;;;;;;;;;;;-1.00;99.90;;;;;;5030084;28;19929;-66
2023/11/28 06:46:12;;;;;;;;;;;-1.10;99.90;;;;;;5024949;28;19979;-70
2023/11/28 06:48:39;;;;;;;;;;;-1.10;99.90;;;;;;5035453;28;19999;-63
2023/11/28 06:51:07;;;;;;;;;;;-1.10;99.90;;;;;;5025774;28;21335;-61
2023/11/28 06:53:34;;;;;;;;;;;-1.00;99.90;;;;;;5026452;28;19933;-66
2023/11/28 06:56:02;;;;;;;;;;;-1.00;99.90;;;;;;5036910;28;19929;-65
2023/11/28 06:58:29;;;;;;;;;;;-1.00;99.90;;;;;;5032609;28;20012;-62
2023/11/28 07:00:56;;;;;;;;;;;-1.00;99.90;;;;;;5040378;28;20024;-64
2023/11/28 07:03:23;;;;;;;;;;;-1.10;99.90;;;;;;5034339;28;20020;-62
2023/11/28 07:05:49;;;;;;;;;;;-1.10;99.90;;;;;;5033255;28;19925;-63
2023/11/28 07:08:16;;;;;;;;;;;-1.10;99.90;;;;;;5032780;28;19932;-62
2023/11/28 07:10:43;;;;;;;;;;;-1.10;99.90;;;;;;5032503;28;19925;-67
2023/11/28 07:13:10;;;;;;;;;;;-1.00;99.90;;;;;;5034800;28;19932;-66
2023/11/28 07:15:37;;;;;;;;;;;-1.10;99.90;;;;;;5035296;28;19964;-65
2023/11/28 07:18:04;;;;;;;;;;;-1.10;99.90;;;;;;5033280;28;19959;-63
2023/11/28 07:20:31;;;;;;;;;;;-1.10;99.90;;;;;;5036423;28;19932;-66
2023/11/28 07:22:57;;;;;;;;;;;-1.10;99.90;;;;;;5032401;28;19925;-67
2023/11/28 07:25:24;;;;;;;;;;;-1.10;99.90;;;;;;5030455;28;19936;-65
2023/11/28 07:27:51;;;;;;;;;;;-1.10;99.90;;;;;;5034440;28;20345;-63
2023/11/28 07:30:18;;;;;;;;;;;-1.10;99.90;;;;;;5031484;28;20444;-66
2023/11/28 07:32:45;;;;;;;;;;;-1.10;99.90;;;;;;5030310;28;19936;-62
2023/11/28 07:35:11;;;;;;;;;;;-1.10;99.90;;;;;;5035958;28;20393;-65
2023/11/28 07:37:39;;;;;;;;;;;-1.00;99.90;;;;;;5030875;28;19933;-68
2023/11/28 07:40:08;;;;;;;;;;;-0.90;99.90;;;;;;5034065;28;19932;-64
2023/11/28 07:42:35;;;;;;;;;;;-0.90;99.90;;;;;;5032002;28;20276;-63
2023/11/28 07:45:02;;;;;;;;;;;-0.80;99.90;;;;;;5030938;28;20012;-63
2023/11/28 07:47:29;;;;;;;;;;;-0.90;99.90;;;;;;5038755;28;19926;-70
2023/11/28 07:49:56;;;;;;;;;;;-1.00;99.90;;;;;;5030640;28;20020;-67
2023/11/28 07:52:22;;;;;;;;;;;-1.00;99.90;;;;;;5027077;28;19925;-66
2023/11/28 07:54:49;;;;;;;;;;;-1.00;99.90;;;;;;5032448;28;19925;-64
2023/11/28 07:57:16;;;;;;;;;;;-0.90;99.90;;;;;;5032641;28;20386;-62
2023/11/28 07:59:46;;;;;;;;;;;-1.00;99.90;;;;;;5034219;28;20316;-64
2023/11/28 08:02:14;;;;;;;;;;;-1.00;99.90;;;;;;5030948;28;20418;-66
2023/11/28 08:04:41;;;;;;;;;;;-1.00;99.90;;;;;;5030359;28;19956;-65
2023/11/28 08:07:08;;;;;;;;;;;-1.10;99.90;;;;;;5037686;28;19925;-62
2023/11/28 08:09:37;;;;;;;;;;;-1.00;99.90;;;;;;5036021;28;20026;-64
2023/11/28 08:12:04;;;;;;;;;;;-1.00;99.90;;;;;;5036564;28;19933;-62
2023/11/28 08:14:31;;;;;;;;;;;-1.00;99.90;;;;;;5030480;28;19929;-62
2023/11/28 08:16:59;;;;;;;;;;;-1.00;99.90;;;;;;5033314;28;20363;-64
2023/11/28 08:19:26;;;;;;;;;;;-1.00;99.90;;;;;;5028325;28;20018;-62
2023/11/28 08:21:53;;;;;;;;;;;-1.10;99.90;;;;;;5031972;28;19957;-65
2023/11/28 08:24:20;;;;;;;;;;;-1.10;99.90;;;;;;5033594;28;20330;-65
2023/11/28 08:26:46;;;;;;;;;;;-1.10;99.90;;;;;;5039582;28;19925;-62
2023/11/28 08:29:13;;;;;;;;;;;-1.00;99.90;;;;;;5033090;28;19925;-70
2023/11/28 08:31:40;;;;;;;;;;;-0.90;99.90;;;;;;5034023;28;19924;-62
2023/11/28 08:34:07;;;;;;;;;;;-1.00;99.90;;;;;;5028023;28;19964;-62
2023/11/28 08:36:34;;;;;;;;;;;-1.00;99.90;;;;;;5033023;28;20322;-65
2023/11/28 08:39:00;;;;;;;;;;;-0.90;99.90;;;;;;5030242;28;20423;-66
2023/11/28 08:41:27;;;;;;;;;;;-0.90;99.90;;;;;;5035586;28;19971;-62
2023/11/28 08:43:54;;;;;;;;;;;-0.80;99.90;;;;;;5028213;28;20307;-64
2023/11/28 08:46:21;;;;;;;;;;;-0.80;99.90;;;;;;5028026;28;20422;-64
2023/11/28 08:48:50;;;;;;;;;;;-0.90;99.90;;;;;;5031659;28;19925;-64
2023/11/28 08:51:17;;;;;;;;;;;-1.00;99.90;;;;;;5030447;28;20016;-63
2023/11/28 08:53:44;;;;;;;;;;;-0.90;99.90;;;;;;5035932;28;19925;-64
2023/11/28 08:56:11;;;;;;;;;;;-0.90;99.90;;;;;;5031966;28;19925;-66
2023/11/28 08:58:38;;;;;;;;;;;-0.90;99.90;;;;;;5038837;28;19926;-65
2023/11/28 09:01:06;;;;;;;;;;;-1.00;99.90;;;;;;5035749;28;19939;-70
2023/11/28 09:03:33;;;;;;;;;;;-0.90;99.90;;;;;;5031236;28;19929;-62
2023/11/28 09:06:00;;;;;;;;;;;-0.80;99.90;;;;;;5039034;28;20020;-62
2023/11/28 09:08:27;;;;;;;;;;;-0.80;99.90;;;;;;5032600;28;20375;-63
2023/11/28 09:10:54;;;;;;;;;;;-0.80;99.90;;;;;;5036186;28;19933;-62
2023/11/28 09:13:21;;;;;;;;;;;-0.70;99.90;;;;;;5035661;28;19925;-62
2023/11/28 09:15:48;;;;;;;;;;;-0.70;99.90;;;;;;5025076;28;19944;-66
2023/11/28 09:18:15;;;;;;;;;;;-0.70;99.90;;;;;;5027511;28;19925;-64
2023/11/28 09:20:42;;;;;;;;;;;-0.70;99.90;;;;;;5029032;28;19925;-63
2023/11/28 09:23:08;;;;;;;;;;;-0.70;99.90;;;;;;5030107;28;20509;-62
2023/11/28 09:25:35;;;;;;;;;;;-0.80;99.90;;;;;;5034806;28;20330;-62
2023/11/28 09:28:02;;;;;;;;;;;-0.70;99.90;;;;;;5032337;28;19925;-65
2023/11/28 09:30:29;;;;;;;;;;;-0.70;99.90;;;;;;5034180;28;19979;-68
2023/11/28 09:32:56;;;;;;;;;;;-0.80;99.90;;;;;;5033476;28;19924;-62
2023/11/28 09:35:23;;;;;;;;;;;-0.70;99.90;;;;;;5027050;28;20016;-65
2023/11/28 09:37:54;;;;;;;;;;;-0.70;99.90;;;;;;5034364;28;19936;-71
2023/11/28 09:40:21;;;;;;;;;;;-0.70;99.90;;;;;;5036574;28;19933;-67
2023/11/28 09:42:50;;;;;;;;;;;-0.70;99.90;;;;;;5031848;28;19926;-62
2023/11/28 09:45:18;;;;;;;;;;;-0.60;99.90;;;;;;5033292;28;19932;-64
2023/11/28 09:47:45;;;;;;;;;;;-0.50;99.90;;;;;;5031492;28;20388;-63
2023/11/28 09:50:13;;;;;;;;;;;-0.50;99.90;;;;;;5038097;28;19978;-65
2023/11/28 09:52:40;;;;;;;;;;;-0.60;99.90;;;;;;5030723;28;20110;-65
2023/11/28 09:55:08;;;;;;;;;;;-0.70;99.90;;;;;;5046894;28;20341;-61
2023/11/28 09:57:38;;;;;;;;;;;-0.60;99.90;;;;;;5031423;28;19932;-64
2023/11/28 10:00:05;;;;;;;;;;;-0.60;99.90;;;;;;5029807;28;20386;-65
2023/11/28 10:02:36;;;;;;;;;;;-0.70;99.90;;;;;;5028511;28;19935;-63
2023/11/28 10:05:04;;;;;;;;;;;-0.60;99.90;;;;;;5029887;28;19929;-62
2023/11/28 10:07:32;;;;;;;;;;;-0.60;99.90;;;;;;5026769;28;19964;-62
2023/11/28 10:10:00;;;;;;;;;;;-0.60;99.90;;;;;;5035548;28;20023;-66
2023/11/28 10:12:26;;;;;;;;;;;-0.70;99.90;;;;;;5024031;28;20035;-65
2023/11/28 10:14:53;;;;;;;;;;;-0.70;99.90;;;;;;5029026;28;19925;-64
2023/11/28 10:17:20;;;;;;;;;;;-0.70;99.90;;;;;;5030437;28;20038;-70
2023/11/28 10:19:47;;;;;;;;;;;-0.70;99.90;;;;;;5031778;28;19960;-66
2023/11/28 10:22:14;;;;;;;;;;;-0.70;99.90;;;;;;5031387;28;19925;-69
2023/11/28 10:24:41;;;;;;;;;;;-0.80;99.90;;;;;;5032134;28;19948;-61
2023/11/28 10:27:11;;;;;;;;;;;-0.80;99.90;;;;;;5027172;28;19925;-65
2023/11/28 10:29:39;;;;;;;;;;;-0.90;99.90;;;;;;5030416;28;19925;-63
2023/11/28 10:32:06;;;;;;;;;;;-0.90;99.90;;;;;;5029371;28;20018;-66
2023/11/28 10:34:35;;;;;;;;;;;-1.00;99.90;;;;;;5036368;28;19971;-67
2023/11/28 10:37:02;;;;;;;;;;;-1.00;99.90;;;;;;5033041;28;19939;-62
2023/11/28 10:39:29;;;;;;;;;;;-1.00;99.90;;;;;;5032118;28;19956;-62
2023/11/28 10:41:56;;;;;;;;;;;-0.90;99.90;;;;;;5033256;28;20390;-69
2023/11/28 10:44:23;;;;;;;;;;;-0.90;99.90;;;;;;5038960;28;20371;-61
2023/11/28 10:46:51;;;;;;;;;;;-0.90;99.90;;;;;;5033960;28;19929;-62
2023/11/28 10:49:19;;;;;;;;;;;-0.90;99.90;;;;;;5041054;28;19929;-65
2023/11/28 10:51:48;;;;;;;;;;;-0.90;99.90;;;;;;5032848;28;19945;-62
2023/11/28 10:54:15;;;;;;;;;;;-0.80;99.90;;;;;;5041792;28;19979;-66
2023/11/28 10:56:46;;;;;;;;;;;-0.80;99.90;;;;;;5033098;28;20382;-63
2023/11/28 10:59:19;;;;;;;;;;;-0.90;99.90;;;;;;5032821;28;19925;-72
2023/11/28 11:01:47;;;;;;;;;;;-0.90;99.90;;;;;;5037923;28;19925;-63
2023/11/28 11:04:14;;;;;;;;;;;-1.00;99.90;;;;;;5028002;28;19940;-66
2023/11/28 11:06:41;;;;;;;;;;;-1.10;99.90;;;;;;5033125;28;19987;-64
2023/11/28 11:09:09;;;;;;;;;;;-1.10;99.90;;;;;;5029143;28;19929;-62
2023/11/28 11:11:36;;;;;;;;;;;-1.10;99.90;;;;;;5034152;28;20379;-67
2023/11/28 11:14:10;;;;;;;;;;;-1.10;99.90;;;;;;5029658;28;20451;-64
2023/11/28 11:16:41;;;;;;;;;;;-1.10;99.90;;;;;;5029976;28;19925;-67
2023/11/28 11:19:09;;;;;;;;;;;-1.10;99.90;;;;;;5033029;28;19933;-63
2023/11/28 11:21:36;;;;;;;;;;;-1.10;99.90;;;;;;5028574;28;19929;-65
2023/11/28 11:24:03;;;;;;;;;;;-1.20;99.90;;;;;;5031279;28;20348;-62
2023/11/28 11:26:41;;;;;;;;;;;-1.20;99.90;;;;;;5035179;28;19973;-63
2023/11/28 11:29:18;;;;;;;;;;;-1.10;99.90;;;;;;5032932;28;19990;-63
2023/11/28 11:32:11;;;;;;;;;;;-1.20;99.90;;;;;;5034309;28;19956;-66
2023/11/28 11:34:48;;;;;;;;;;;-1.20;99.90;;;;;;5031333;28;19979;-65
2023/11/28 11:37:19;;;;;;;;;;;-1.20;99.90;;;;;;5030567;28;19991;-64
2023/11/28 11:39:47;;;;;;;;;;;-1.20;99.90;;;;;;5038093;28;20367;-74
2023/11/28 11:42:18;;;;;;;;;;;-1.20;99.90;;;;;;5036493;28;20285;-63
2023/11/28 11:44:45;;;;;;;;;;;-1.20;99.90;;;;;;5034321;28;19925;-65
2023/11/28 11:47:17;;;;;;;;;;;-1.10;99.90;;;;;;5029889;28;19937;-62
2023/11/28 11:49:44;;;;;;;;;;;-1.20;99.90;;;;;;5030569;28;19925;-65
2023/11/28 11:52:13;;;;;;;;;;;-1.10;99.90;;;;;;5031174;28;19925;-66
2023/11/28 11:54:40;;;;;;;;;;;-1.20;99.90;;;;;;5032160;28;19925;-66
2023/11/28 11:57:08;;;;;;;;;;;-1.20;99.90;;;;;;5034126;28;20012;-62
2023/11/28 11:59:35;;;;;;;;;;;-1.20;99.90;;;;;;5034476;28;19968;-63
2023/11/28 12:02:01;;;;;;;;;;;-1.20;99.90;;;;;;5034292;28;20294;-63
2023/11/28 12:04:29;;;;;;;;;;;-1.20;99.90;;;;;;5026885;28;20379;-64
2023/11/28 12:07:03;;;;;;;;;;;-1.20;99.90;;;;;;5029702;28;20445;-67
2023/11/28 12:09:30;;;;;;;;;;;-1.20;99.90;;;;;;5030420;28;19964;-69
2023/11/28 12:11:57;;;;;;;;;;;-1.20;99.90;;;;;;5038871;28;19925;-63
2023/11/28 12:14:24;;;;;;;;;;;-1.30;99.90;;;;;;5023466;28;20007;-70
2023/11/28 12:16:52;;;;;;;;;;;-1.20;99.90;;;;;;5032102;28;19976;-63
2023/11/28 12:19:19;;;;;;;;;;;-1.20;99.90;;;;;;5028516;28;20015;-64
2023/11/28 12:21:46;;;;;;;;;;;-1.20;99.90;;;;;;5033450;28;19932;-68
2023/11/28 12:24:13;;;;;;;;;;;-1.20;99.90;;;;;;5031039;28;20335;-69
2023/11/28 12:26:40;;;;;;;;;;;-1.20;99.90;;;;;;5026653;28;19968;-65
2023/11/28 12:29:07;;;;;;;;;;;-1.20;99.90;;;;;;5028400;28;19925;-73
2023/11/28 12:31:34;;;;;;;;;;;-1.20;99.90;;;;;;5031939;28;20372;-66
2023/11/28 12:34:01;;;;;;;;;;;-1.20;99.90;;;;;;5032295;28;19928;-66
2023/11/28 12:36:28;;;;;;;;;;;-1.20;99.90;;;;;;5032221;28;20015;-68
2023/11/28 12:38:58;;;;;;;;;;;-1.20;99.90;;;;;;5033509;28;19929;-66
2023/11/28 12:41:34;;;;;;;;;;;-1.20;99.90;;;;;;5031048;28;20105;-67
2023/11/28 12:44:04;;;;;;;;;;;-1.20;99.90;;;;;;5033694;28;19943;-66
2023/11/28 12:46:32;;;;;;;;;;;-1.30;99.90;;;;;;5026958;28;19929;-70
2023/11/28 12:48:59;;;;;;;;;;;-1.30;99.90;;;;;;5027019;28;19948;-63
2023/11/28 12:51:28;;;;;;;;;;;-1.30;99.90;;;;;;5034165;28;20367;-66
2023/11/28 12:54:11;;;;;;;;;;;-1.30;99.90;;;;;;5030473;28;19926;-65
2023/11/28 12:56:52;;;;;;;;;;;-1.30;99.90;;;;;;5024246;28;20786;-67
2023/11/28 12:59:19;;;;;;;;;;;-1.30;99.90;;;;;;5032634;28;20027;-70
2023/11/28 13:01:46;;;;;;;;;;;-1.40;99.90;;;;;;5031639;28;19940;-67
2023/11/28 13:04:14;;;;;;;;;;;-1.30;99.90;;;;;;5029684;28;20010;-65
2023/11/28 13:06:43;;;;;;;;;;;-1.30;99.90;;;;;;5027398;28;19932;-64
2023/11/28 13:09:35;;;;;;;;;;;-1.30;99.90;;;;;;5028377;28;19929;-66
2023/11/28 13:12:02;;;;;;;;;;;-1.40;99.90;;;;;;5028818;28;20348;-62
2023/11/28 13:14:29;;;;;;;;;;;-1.50;99.90;;;;;;5027992;28;20387;-67
2023/11/28 13:16:56;;;;;;;;;;;-1.40;99.90;;;;;;5026238;28;19971;-65
2023/11/28 13:19:33;;;;;;;;;;;-1.50;99.90;;;;;;5031813;28;19928;-63
2023/11/28 13:22:00;;;;;;;;;;;-1.50;99.90;;;;;;5031395;28;19928;-69
2023/11/28 13:24:26;;;;;;;;;;;-1.50;99.90;;;;;;5031781;28;20015;-65
2023/11/28 13:26:53;;;;;;;;;;;-1.60;99.90;;;;;;5032699;28;20019;-67
2023/11/28 13:29:22;;;;;;;;;;;-1.70;99.90;;;;;;5032368;28;19948;-69
2023/11/28 13:31:54;;;;;;;;;;;-1.80;99.90;;;;;;5033913;28;19994;-68
2023/11/28 13:34:21;;;;;;;;;;;-1.90;99.90;;;;;;5033219;28;19935;-63
2023/11/28 13:36:48;;;;;;;;;;;-1.80;99.90;;;;;;5029059;28;19971;-62
2023/11/28 13:39:16;;;;;;;;;;;-1.80;99.90;;;;;;5034490;28;19925;-67
2023/11/28 13:41:43;;;;;;;;;;;-1.70;99.90;;;;;;5030522;28;19929;-66
2023/11/28 13:44:10;;;;;;;;;;;-1.80;99.90;;;;;;5033394;28;20027;-69
2023/11/28 13:46:37;;;;;;;;;;;-1.80;99.90;;;;;;5027263;28;19959;-61
2023/11/28 13:49:04;;;;;;;;;;;-1.80;99.90;;;;;;5032685;28;19931;-64
2023/11/28 13:51:32;;;;;;;;;;;-1.80;99.90;;;;;;5028107;28;19925;-73
2023/11/28 13:53:58;;;;;;;;;;;-1.80;99.90;;;;;;5033143;28;20394;-61
2023/11/28 13:56:25;;;;;;;;;;;-1.80;99.90;;;;;;5031401;28;20031;-64
2023/11/28 13:58:52;;;;;;;;;;;-1.70;99.90;;;;;;5028211;28;19968;-64
2023/11/28 14:01:19;;;;;;;;;;;-1.80;99.90;;;;;;5033081;28;19944;-63
2023/11/28 14:03:48;;;;;;;;;;;-1.90;99.90;;;;;;5035043;28;19952;-63
2023/11/28 14:06:15;;;;;;;;;;;-1.90;99.90;;;;;;5028461;28;19979;-67
2023/11/28 14:08:42;;;;;;;;;;;-1.90;99.90;;;;;;5029690;28;19926;-62
2023/11/28 14:11:08;;;;;;;;;;;-1.80;99.90;;;;;;5030520;28;20338;-64
2023/11/28 14:13:36;;;;;;;;;;;-1.90;99.90;;;;;;5029772;28;19940;-61
2023/11/28 14:16:04;;;;;;;;;;;-1.80;99.90;;;;;;5032787;28;19964;-61
2023/11/28 14:18:34;;;;;;;;;;;-1.90;99.90;;;;;;5028883;28;20281;-67